createdAt,value
2022-07-25T00:02:04.565Z,3.93
2022-07-25T00:04:35.258Z,4.33
2022-07-25T00:07:03.972Z,5.13
2022-07-25T00:09:31.789Z,3.33
2022-07-25T00:11:59.848Z,3.70
2022-07-25T00:14:27.613Z,3.97
2022-07-25T00:16:56.872Z,3.47
2022-07-25T00:19:24.701Z,6.17
2022-07-25T00:21:52.562Z,4.17
2022-07-25T00:24:20.424Z,5.00
2022-07-25T00:26:48.228Z,3.00
2022-07-25T00:29:16.216Z,4.40
2022-07-25T00:31:44.005Z,3.10
2022-07-25T00:34:13.505Z,5.07
2022-07-25T00:36:41.290Z,5.97
2022-07-25T00:39:09.193Z,3.93
2022-07-25T00:41:37.389Z,4.33
2022-07-25T00:44:05.835Z,6.57
2022-07-25T00:46:34.185Z,4.70
2022-07-25T00:49:02.240Z,4.70
2022-07-25T00:51:31.756Z,5.00
2022-07-25T00:53:59.652Z,5.83
2022-07-25T00:56:27.749Z,4.33
2022-07-25T00:58:56.084Z,4.77
2022-07-25T01:01:24.279Z,4.57
2022-07-25T01:03:52.404Z,3.73
2022-07-25T01:06:20.905Z,3.33
2022-07-25T01:08:54.405Z,3.73
2022-07-25T01:11:23.117Z,3.77
2022-07-25T01:13:51.123Z,4.47
2022-07-25T01:16:19.252Z,5.33
2022-07-25T01:18:47.318Z,3.30
2022-07-25T01:21:16.555Z,3.43
2022-07-25T01:23:44.530Z,3.40
2022-07-25T01:26:12.264Z,4.03
2022-07-25T01:28:40.277Z,4.33
2022-07-25T01:31:08.149Z,5.00
2022-07-25T01:33:36.129Z,4.33
2022-07-25T01:36:04.041Z,3.83
2022-07-25T01:38:33.316Z,4.13
2022-07-25T01:41:01.081Z,4.47
2022-07-25T01:43:28.915Z,3.63
2022-07-25T01:45:56.914Z,4.03
2022-07-25T01:48:25.556Z,5.97
2022-07-25T01:50:53.394Z,4.07
2022-07-25T01:53:22.345Z,4.50
2022-07-25T01:55:53.229Z,5.13
2022-07-25T01:58:22.401Z,4.87
2022-07-25T02:00:50.689Z,3.97
2022-07-25T02:03:33.438Z,4.60
2022-07-25T02:06:02.986Z,4.50
2022-07-25T02:08:31.163Z,4.20
2022-07-25T02:11:00.780Z,4.27
2022-07-25T02:13:28.877Z,4.67
2022-07-25T02:15:56.765Z,4.47
2022-07-25T02:18:24.635Z,3.97
2022-07-25T02:20:52.412Z,4.30
2022-07-25T02:23:20.250Z,3.73
2022-07-25T02:25:47.985Z,4.67
2022-07-25T02:28:17.271Z,4.30
2022-07-25T02:30:45.322Z,3.90
2022-07-25T02:33:13.274Z,5.60
2022-07-25T02:35:41.017Z,3.20
2022-07-25T02:38:09.127Z,4.10
2022-07-25T02:40:36.938Z,3.80
2022-07-25T02:43:04.797Z,4.17
2022-07-25T02:45:35.042Z,5.20
2022-07-25T02:48:03.258Z,3.93
2022-07-25T02:50:31.083Z,7.10
2022-07-25T02:52:59.266Z,5.37
2022-07-25T02:55:27.136Z,4.83
2022-07-25T02:57:54.961Z,4.50
2022-07-25T03:00:22.853Z,3.67
2022-07-25T03:02:52.463Z,3.80
2022-07-25T03:05:20.225Z,7.20
2022-07-25T03:07:48.066Z,3.67
2022-07-25T03:10:16.245Z,4.23
2022-07-25T03:12:44.845Z,4.40
2022-07-25T03:15:13.830Z,4.63
2022-07-25T03:17:42.719Z,5.90
2022-07-25T03:20:12.560Z,5.03
2022-07-25T03:22:40.477Z,3.47
2022-07-25T03:25:15.944Z,4.67
2022-07-25T03:27:51.518Z,3.40
2022-07-25T03:30:19.506Z,4.17
2022-07-25T03:32:47.768Z,5.07
2022-07-25T03:35:17.013Z,6.70
2022-07-25T03:37:45.520Z,4.90
2022-07-25T03:40:14.309Z,5.03
2022-07-25T03:42:43.765Z,4.60
2022-07-25T03:45:11.996Z,4.13
2022-07-25T03:47:39.939Z,4.63
2022-07-25T03:50:08.148Z,5.93
2022-07-25T03:52:38.274Z,5.47
2022-07-25T03:55:07.010Z,4.63
2022-07-25T03:57:34.895Z,5.30
2022-07-25T04:00:03.252Z,5.43
2022-07-25T04:02:31.157Z,3.57
2022-07-25T04:04:59.204Z,5.67
2022-07-25T04:07:27.165Z,3.27
2022-07-25T04:09:56.312Z,4.20
2022-07-25T04:12:24.341Z,7.77
2022-07-25T04:14:52.109Z,6.17
2022-07-25T04:17:20.100Z,5.07
2022-07-25T04:19:48.866Z,5.37
2022-07-25T04:22:17.058Z,6.00
2022-07-25T04:24:45.262Z,5.47
2022-07-25T04:27:14.689Z,5.13
2022-07-25T04:29:42.520Z,5.70
2022-07-25T04:32:10.489Z,7.00
2022-07-25T04:34:38.507Z,5.33
2022-07-25T04:37:06.282Z,4.60
2022-07-25T04:39:34.108Z,5.00
2022-07-25T04:42:02.056Z,4.33
2022-07-25T04:44:31.186Z,5.27
2022-07-25T04:46:59.016Z,3.95
2022-07-25T04:49:26.850Z,4.10
2022-07-25T04:51:54.670Z,3.85
2022-07-25T04:54:22.463Z,5.88
2022-07-25T04:56:50.202Z,3.35
2022-07-25T04:59:18.162Z,3.63
2022-07-25T05:01:47.283Z,3.33
2022-07-25T05:04:15.298Z,3.63
2022-07-25T05:06:43.065Z,3.05
2022-07-25T05:09:10.896Z,3.45
2022-07-25T05:11:41.474Z,3.55
2022-07-25T05:14:11.619Z,3.63
2022-07-25T05:16:39.459Z,4.00
2022-07-25T05:19:09.616Z,4.18
2022-07-25T05:21:38.191Z,4.68
2022-07-25T05:24:06.836Z,3.60
2022-07-25T05:26:35.171Z,3.60
2022-07-25T05:29:03.089Z,4.68
2022-07-25T05:31:30.911Z,6.47
2022-07-25T05:33:58.783Z,3.30
2022-07-25T05:36:28.078Z,4.03
2022-07-25T05:38:56.021Z,3.95
2022-07-25T05:41:23.836Z,5.47
2022-07-25T05:43:52.558Z,3.58
2022-07-25T05:46:20.484Z,4.10
2022-07-25T05:48:48.454Z,4.03
2022-07-25T05:51:16.299Z,3.10
2022-07-25T05:53:45.560Z,3.70
2022-07-25T05:56:13.373Z,4.70
2022-07-25T05:58:42.237Z,3.95
2022-07-25T06:01:13.421Z,5.47
2022-07-25T06:03:41.298Z,4.57
2022-07-25T06:06:09.942Z,3.10
2022-07-25T06:08:38.417Z,3.47
2022-07-25T06:11:08.595Z,3.97
2022-07-25T06:13:37.610Z,3.03
2022-07-25T06:16:06.114Z,5.72
2022-07-25T06:18:34.073Z,3.40
2022-07-25T06:21:01.902Z,3.42
2022-07-25T06:23:29.796Z,3.60
2022-07-25T06:25:57.654Z,3.58
2022-07-25T06:28:26.866Z,3.28
2022-07-25T06:33:30.517Z,3.55
2022-07-25T06:35:58.321Z,4.03
2022-07-25T06:38:26.144Z,3.25
2022-07-25T06:40:54.016Z,3.85
2022-07-25T06:43:21.939Z,2.95
2022-07-25T06:45:51.619Z,5.00
2022-07-25T06:48:19.771Z,3.65
2022-07-25T06:50:47.635Z,3.72
2022-07-25T06:53:15.565Z,3.03
2022-07-25T06:55:43.363Z,3.58
2022-07-25T06:58:11.256Z,4.63
2022-07-25T07:00:39.383Z,3.85
2022-07-25T07:03:08.843Z,3.65
2022-07-25T07:05:37.430Z,3.17
2022-07-25T07:08:05.671Z,3.45
2022-07-25T07:10:33.529Z,3.45
2022-07-25T07:13:07.845Z,4.15
2022-07-25T07:15:36.128Z,4.05
2022-07-25T07:18:04.260Z,4.05
2022-07-25T07:20:33.421Z,2.88
2022-07-25T07:23:01.278Z,3.15
2022-07-25T07:25:30.694Z,3.10
2022-07-25T07:27:59.074Z,4.30
2022-07-25T07:30:52.126Z,3.33
2022-07-25T07:33:15.461Z,3.38
2022-07-25T07:35:46.354Z,3.33
2022-07-25T07:38:17.921Z,3.95
2022-07-25T07:40:45.713Z,3.97
2022-07-25T07:43:13.624Z,3.75
2022-07-25T07:45:42.268Z,4.50
2022-07-25T07:48:10.170Z,3.90
2022-07-25T07:50:38.261Z,3.17
2022-07-25T07:53:07.635Z,3.35
2022-07-25T07:55:48.447Z,3.67
2022-07-25T07:58:18.014Z,3.15
2022-07-25T08:00:47.293Z,3.42
2022-07-25T08:03:19.019Z,2.75
2022-07-25T08:05:51.546Z,3.78
2022-07-25T08:08:21.324Z,3.83
2022-07-25T08:10:51.225Z,3.45
2022-07-25T08:13:23.571Z,3.13
2022-07-25T08:15:53.162Z,3.92
2022-07-25T08:18:23.197Z,3.30
2022-07-25T08:20:52.031Z,3.40
2022-07-25T08:23:22.261Z,3.58
2022-07-25T08:25:50.099Z,4.32
2022-07-25T08:28:17.954Z,3.92
2022-07-25T08:30:45.798Z,3.40
2022-07-25T08:33:17.329Z,4.25
2022-07-25T08:35:51.824Z,3.88
2022-07-25T08:38:21.500Z,2.75
2022-07-25T08:40:50.854Z,3.67
2022-07-25T08:43:23.311Z,2.78
2022-07-25T08:45:53.397Z,3.70
2022-07-25T08:48:23.345Z,3.20
2022-07-25T08:50:51.825Z,3.47
2022-07-25T08:53:37.936Z,3.45
2022-07-25T08:56:13.346Z,3.97
2022-07-25T08:58:44.606Z,8.43
2022-07-25T09:01:12.842Z,5.43
2022-07-25T09:03:41.067Z,2.97
2022-07-25T09:06:19.868Z,3.35
2022-07-25T09:08:57.265Z,3.67
2022-07-25T09:11:30.367Z,3.95
2022-07-25T09:14:03.162Z,3.50
2022-07-25T09:16:34.822Z,2.88
2022-07-25T09:19:14.593Z,2.97
2022-07-25T09:21:44.378Z,3.08
2022-07-25T09:24:16.957Z,4.15
2022-07-25T09:26:49.447Z,4.65
2022-07-25T09:29:19.638Z,2.85
2022-07-25T09:31:48.093Z,2.92
2022-07-25T09:34:20.905Z,2.50
2022-07-25T09:36:54.215Z,2.47
2022-07-25T09:39:34.457Z,2.65
2022-07-25T09:42:20.274Z,4.50
2022-07-25T09:45:00.012Z,3.22
2022-07-25T09:47:31.563Z,2.33
2022-07-25T09:50:00.176Z,2.40
2022-07-25T09:52:28.136Z,2.90
2022-07-25T09:54:57.290Z,4.22
2022-07-25T09:57:25.792Z,3.50
2022-07-25T09:59:53.918Z,2.35
2022-07-25T10:02:34.186Z,4.03
2022-07-25T10:05:13.773Z,3.40
2022-07-25T10:07:48.358Z,6.43
2022-07-25T10:10:27.094Z,3.55
2022-07-25T10:13:06.504Z,4.60
2022-07-25T10:15:49.146Z,4.53
2022-07-25T10:18:20.665Z,3.92
2022-07-25T10:20:50.274Z,3.00
2022-07-25T10:23:19.923Z,4.93
2022-07-25T10:26:00.020Z,4.57
2022-07-25T10:28:43.274Z,5.13
2022-07-25T10:31:23.713Z,4.18
2022-07-25T10:33:57.525Z,3.75
2022-07-25T10:36:29.351Z,2.72
2022-07-25T10:39:02.243Z,3.13
2022-07-25T10:41:31.404Z,3.20
2022-07-25T10:44:04.782Z,4.00
2022-07-25T10:46:36.306Z,3.17
2022-07-25T10:49:06.644Z,4.07
2022-07-25T10:51:41.147Z,3.60
2022-07-25T10:54:18.270Z,4.43
2022-07-25T10:56:55.351Z,3.55
2022-07-25T10:59:32.084Z,2.90
2022-07-25T11:02:02.350Z,3.33
2022-07-25T11:04:30.673Z,4.85
2022-07-25T11:06:58.588Z,5.53
2022-07-25T11:09:28.945Z,4.47
2022-07-25T11:11:59.693Z,2.53
2022-07-25T11:14:32.723Z,2.38
2022-07-25T11:17:12.727Z,2.10
2022-07-25T11:19:40.835Z,2.10
2022-07-25T11:22:08.809Z,2.58
2022-07-25T11:25:02.405Z,2.85
2022-07-25T11:27:34.426Z,3.33
2022-07-25T11:30:09.123Z,2.50
2022-07-25T11:32:41.397Z,2.10
2022-07-25T11:35:12.937Z,2.25
2022-07-25T11:37:42.494Z,2.97
2022-07-25T11:40:11.162Z,2.65
2022-07-25T11:42:45.472Z,2.00
2022-07-25T11:45:22.517Z,2.20
2022-07-25T11:48:04.574Z,2.95
2022-07-25T11:50:33.974Z,2.13
2022-07-25T11:53:03.157Z,1.90
2022-07-25T11:55:33.565Z,2.17
2022-07-25T11:58:09.586Z,2.95
2022-07-25T12:00:41.341Z,2.67
2022-07-25T12:03:13.071Z,2.35
2022-07-25T12:05:45.477Z,2.00
2022-07-25T12:08:15.314Z,1.58
2022-07-25T12:10:44.669Z,2.00
2022-07-25T12:13:23.473Z,2.67
2022-07-25T12:15:51.318Z,2.03
2022-07-25T12:18:24.318Z,2.95
2022-07-25T12:20:52.923Z,5.15
2022-07-25T12:23:24.527Z,2.83
2022-07-25T12:25:52.658Z,2.85
2022-07-25T12:28:21.883Z,3.80
2022-07-25T12:30:56.031Z,2.72
2022-07-25T12:33:26.540Z,2.15
2022-07-25T12:35:54.358Z,2.30
2022-07-25T12:38:22.244Z,2.75
2022-07-25T12:40:50.387Z,2.78
2022-07-25T12:43:21.578Z,1.42
2022-07-25T12:45:50.837Z,3.25
2022-07-25T12:48:18.773Z,2.75
2022-07-25T12:50:48.424Z,8.07
2022-07-25T12:53:19.591Z,2.80
2022-07-25T12:55:47.361Z,3.95
2022-07-25T12:58:18.546Z,2.58
2022-07-25T13:00:50.469Z,2.25
2022-07-25T13:03:20.238Z,2.90
2022-07-25T13:05:48.115Z,1.73
2022-07-25T13:08:17.444Z,2.20
2022-07-25T13:10:45.270Z,1.30
2022-07-25T13:13:14.369Z,3.47
2022-07-25T13:15:45.435Z,2.50
2022-07-25T13:18:13.384Z,2.40
2022-07-25T13:20:42.558Z,1.58
2022-07-25T13:23:17.457Z,3.85
2022-07-25T13:25:48.171Z,3.50
2022-07-25T13:28:16.855Z,1.98
2022-07-25T13:30:45.232Z,1.33
2022-07-25T13:36:11.373Z,1.73
2022-07-25T13:38:41.369Z,1.35
2022-07-25T13:41:10.722Z,2.33
2022-07-25T13:43:40.593Z,1.15
2022-07-25T13:46:08.410Z,1.08
2022-07-25T13:48:39.572Z,3.03
2022-07-25T13:51:07.525Z,1.20
2022-07-25T13:53:38.574Z,1.33
2022-07-25T13:56:06.942Z,2.92
2022-07-25T13:58:34.893Z,1.08
2022-07-25T14:01:02.954Z,3.28
2022-07-25T14:03:30.896Z,2.03
2022-07-25T14:05:58.786Z,3.28
2022-07-25T14:08:27.155Z,0.82
2022-07-25T14:10:56.269Z,1.13
2022-07-25T14:13:24.338Z,3.53
2022-07-25T14:15:52.209Z,1.65
2022-07-25T14:18:21.644Z,1.75
2022-07-25T14:20:50.040Z,1.35
2022-07-25T14:23:18.058Z,1.25
2022-07-25T14:25:45.825Z,1.52
2022-07-25T14:28:15.194Z,1.23
2022-07-25T14:30:43.058Z,1.33
2022-07-25T14:33:11.081Z,2.53
2022-07-25T14:35:39.923Z,1.90
2022-07-25T14:38:08.316Z,1.27
2022-07-25T14:40:36.979Z,1.10
2022-07-25T14:43:04.856Z,1.65
2022-07-25T14:45:34.208Z,1.67
2022-07-25T14:48:02.382Z,1.30
2022-07-25T14:50:30.334Z,1.73
2022-07-25T14:52:59.760Z,1.17
2022-07-25T14:55:27.962Z,1.45
2022-07-25T14:57:57.770Z,1.77
2022-07-25T15:00:29.450Z,1.45
2022-07-25T15:02:58.933Z,1.35
2022-07-25T15:05:28.547Z,4.13
2022-07-25T15:07:57.765Z,1.75
2022-07-25T15:10:25.543Z,2.85
2022-07-25T15:13:13.694Z,2.45
2022-07-25T15:15:41.333Z,1.05
2022-07-25T15:18:14.184Z,1.45
2022-07-25T15:20:42.402Z,2.03
2022-07-25T15:23:10.306Z,1.52
2022-07-25T15:28:50.240Z,1.45
2022-07-25T15:31:18.198Z,1.10
2022-07-25T15:33:47.441Z,2.00
2022-07-25T15:36:15.262Z,1.58
2022-07-25T15:38:45.309Z,1.55
2022-07-25T15:41:13.679Z,2.83
2022-07-25T15:43:41.827Z,1.92
2022-07-25T15:46:13.017Z,1.55
2022-07-25T15:48:41.823Z,4.05
2022-07-25T15:51:11.103Z,1.50
2022-07-25T15:53:39.025Z,3.40
2022-07-25T15:56:07.818Z,2.28
2022-07-25T15:58:36.093Z,3.58
2022-07-25T16:01:03.975Z,2.60
2022-07-25T16:03:33.682Z,1.77
2022-07-25T16:06:01.493Z,3.05
2022-07-25T16:08:30.991Z,1.50
2022-07-25T16:10:59.734Z,1.52
2022-07-25T16:13:27.974Z,3.05
2022-07-25T16:15:55.818Z,0.70
2022-07-25T16:18:24.115Z,1.33
2022-07-25T16:20:51.880Z,1.58
2022-07-25T16:23:19.700Z,1.83
2022-07-25T16:25:49.446Z,1.35
2022-07-25T16:28:17.403Z,1.52
2022-07-25T16:30:45.195Z,1.55
2022-07-25T16:33:13.248Z,1.38
2022-07-25T16:35:41.065Z,0.93
2022-07-25T16:38:09.466Z,2.58
2022-07-25T16:40:37.371Z,1.13
2022-07-25T16:43:06.626Z,1.70
2022-07-25T16:45:34.495Z,0.73
2022-07-25T16:48:02.379Z,1.92
2022-07-25T16:50:30.186Z,2.15
2022-07-25T16:52:58.097Z,1.92
2022-07-25T16:55:25.976Z,0.80
2022-07-25T16:57:54.319Z,1.35
2022-07-25T17:00:23.604Z,2.22
2022-07-25T17:02:51.555Z,2.10
2022-07-25T17:05:22.994Z,2.20
2022-07-25T17:07:59.050Z,1.03
2022-07-25T17:10:30.727Z,1.13
2022-07-25T17:12:58.666Z,2.43
2022-07-25T17:15:28.015Z,2.33
2022-07-25T17:17:55.939Z,1.43
2022-07-25T17:20:23.881Z,1.37
2022-07-25T17:22:51.695Z,3.20
2022-07-25T17:25:19.552Z,2.33
2022-07-25T17:27:48.716Z,1.00
2022-07-25T17:30:16.497Z,1.63
2022-07-25T17:32:45.970Z,1.80
2022-07-25T17:35:13.868Z,1.63
2022-07-25T17:37:48.511Z,1.70
2022-07-25T17:40:16.439Z,1.80
2022-07-25T17:42:47.099Z,2.63
2022-07-25T17:45:15.398Z,3.43
2022-07-25T17:47:45.382Z,1.60
2022-07-25T17:50:13.989Z,1.20
2022-07-25T17:52:41.853Z,1.03
2022-07-25T17:55:11.907Z,1.00
2022-07-25T17:57:42.008Z,2.27
2022-07-25T18:00:14.779Z,1.70
2022-07-25T18:02:43.093Z,1.37
2022-07-25T18:05:12.443Z,1.23
2022-07-25T18:07:45.046Z,3.07
2022-07-25T18:10:13.587Z,0.70
2022-07-25T18:12:44.689Z,1.80
2022-07-25T18:15:14.754Z,2.30
2022-07-25T18:17:43.690Z,1.97
2022-07-25T18:20:14.585Z,1.00
2022-07-25T18:22:42.729Z,0.83
2022-07-25T18:25:12.480Z,0.83
2022-07-25T18:27:41.802Z,1.50
2022-07-25T18:30:10.971Z,1.03
2022-07-25T18:32:39.775Z,1.00
2022-07-25T18:35:10.783Z,1.00
2022-07-25T18:37:40.165Z,1.87
2022-07-25T18:40:09.392Z,2.30
2022-07-25T18:42:41.689Z,1.50
2022-07-25T18:45:10.913Z,1.10
2022-07-25T18:47:39.953Z,2.40
2022-07-25T18:50:08.899Z,1.50
2022-07-25T18:52:37.378Z,2.23
2022-07-25T18:55:09.146Z,2.37
2022-07-25T18:57:37.096Z,0.57
2022-07-25T19:00:05.977Z,1.57
2022-07-25T19:02:34.472Z,1.20
2022-07-25T19:05:02.392Z,1.27
2022-07-25T19:07:31.162Z,2.07
2022-07-25T19:10:14.964Z,1.40
2022-07-25T19:12:45.899Z,1.50
2022-07-25T19:15:14.236Z,0.83
2022-07-25T19:17:44.523Z,1.90
2022-07-25T19:20:13.133Z,1.53
2022-07-25T19:22:44.925Z,3.47
2022-07-25T19:25:14.231Z,2.73
2022-07-25T19:27:45.822Z,0.43
2022-07-25T19:30:17.313Z,1.87
2022-07-25T19:32:45.879Z,3.13
2022-07-25T19:35:14.000Z,2.63
2022-07-25T19:37:41.842Z,0.73
2022-07-25T19:40:10.982Z,3.10
2022-07-25T19:42:41.333Z,1.63
2022-07-25T19:45:13.755Z,1.30
2022-07-25T19:47:44.915Z,1.50
2022-07-25T19:50:24.408Z,2.57
2022-07-25T19:53:17.154Z,0.70
2022-07-25T19:55:44.993Z,0.60
2022-07-25T19:58:39.729Z,0.67
2022-07-25T20:01:11.300Z,0.40
2022-07-25T20:03:39.316Z,0.70
2022-07-25T20:06:10.106Z,0.40
2022-07-25T20:08:40.089Z,0.50
2022-07-25T20:11:08.294Z,0.50
2022-07-25T20:13:46.190Z,0.50
2022-07-25T20:16:14.329Z,0.50
2022-07-25T20:18:43.018Z,1.73
2022-07-25T20:21:12.071Z,2.30
2022-07-25T20:23:40.595Z,0.50
2022-07-25T20:26:08.910Z,0.30
2022-07-25T20:28:39.227Z,0.83
2022-07-25T20:31:07.531Z,0.87
2022-07-25T20:33:35.637Z,1.03
2022-07-25T20:36:03.516Z,0.80
2022-07-25T20:38:35.092Z,1.13
2022-07-25T20:41:03.023Z,0.30
2022-07-25T20:43:30.949Z,2.00
2022-07-25T20:46:00.141Z,2.00
2022-07-25T20:48:28.196Z,0.50
2022-07-25T20:50:56.008Z,0.57
2022-07-25T20:53:27.774Z,0.60
2022-07-25T20:55:55.564Z,0.87
2022-07-25T20:58:26.920Z,1.60
2022-07-25T21:00:54.739Z,0.70
2022-07-25T21:03:24.311Z,0.70
2022-07-25T21:05:52.226Z,0.57
2022-07-25T21:08:23.993Z,0.60
2022-07-25T21:10:54.901Z,2.03
2022-07-25T21:13:22.809Z,0.33
2022-07-25T21:15:50.698Z,0.50
2022-07-25T21:18:19.982Z,0.67
2022-07-25T21:20:49.290Z,1.40
2022-07-25T21:23:17.575Z,0.40
2022-07-25T21:25:45.338Z,1.37
2022-07-25T21:28:14.990Z,1.83
2022-07-25T21:30:43.363Z,0.30
2022-07-25T21:33:14.812Z,2.37
2022-07-25T21:35:50.551Z,0.60
2022-07-25T21:38:27.525Z,0.50
2022-07-25T21:40:57.003Z,1.17
2022-07-25T21:43:25.178Z,2.20
2022-07-25T21:45:53.178Z,0.50
2022-07-25T21:48:42.869Z,0.70
2022-07-25T21:51:19.324Z,1.07
2022-07-25T21:53:52.781Z,1.00
2022-07-25T21:56:21.186Z,1.23
2022-07-25T21:58:49.059Z,0.90
2022-07-25T22:01:17.257Z,1.03
2022-07-25T22:03:47.046Z,0.87
2022-07-25T22:06:14.954Z,0.90
2022-07-25T22:08:42.783Z,0.47
2022-07-25T22:11:36.235Z,0.40
2022-07-25T22:13:59.997Z,0.50
2022-07-25T22:16:29.047Z,1.13
2022-07-25T22:18:59.950Z,0.53
2022-07-25T22:21:28.672Z,1.93
2022-07-25T22:23:56.548Z,0.50
2022-07-25T22:26:26.040Z,1.70
2022-07-25T22:28:53.981Z,0.30
2022-07-25T22:31:21.784Z,0.73
2022-07-25T22:33:49.895Z,0.30
2022-07-25T22:36:17.809Z,3.73
2022-07-25T22:38:45.748Z,0.60
2022-07-25T22:41:13.657Z,0.93
2022-07-25T22:43:58.949Z,1.07
2022-07-25T22:46:28.629Z,1.20
2022-07-25T22:48:57.452Z,0.87
2022-07-25T22:51:26.285Z,1.63
2022-07-25T22:53:54.283Z,0.93
2022-07-25T22:56:22.952Z,4.47
2022-07-25T22:58:52.356Z,0.43
2022-07-25T23:01:21.076Z,0.80
2022-07-25T23:03:50.663Z,0.80
2022-07-25T23:06:19.047Z,1.70
2022-07-25T23:08:47.327Z,0.97
2022-07-25T23:11:15.482Z,1.10
2022-07-25T23:13:43.701Z,1.13
2022-07-25T23:16:12.856Z,0.60
2022-07-25T23:18:40.952Z,0.67
2022-07-25T23:21:08.780Z,2.23
2022-07-25T23:23:36.704Z,0.50
2022-07-25T23:26:04.799Z,0.40
2022-07-25T23:28:32.739Z,1.63
2022-07-25T23:31:00.493Z,0.93
2022-07-25T23:33:30.891Z,0.83
2022-07-25T23:35:58.669Z,1.20
2022-07-25T23:38:26.638Z,1.73
2022-07-25T23:40:54.956Z,1.50
2022-07-25T23:43:48.285Z,0.50
2022-07-25T23:46:10.700Z,1.20
2022-07-25T23:48:41.102Z,0.73
2022-07-25T23:51:09.017Z,2.70
2022-07-25T23:53:37.221Z,0.73
2022-07-25T23:56:05.466Z,1.10
2022-07-25T23:58:33.329Z,0.67
